Home > Products > Valid Products > TAF

000
FTUS45 KREV 282300
TAFRNO
TAF
KRNO 282325Z 2900/2924 29008KT P6SM SCT100
     FM290400 VRB04KT P6SM SKC
     FM292200 27014G24KT P6SM SCT180=



000
FTUS45 KREV 282300
TAFRNO
TAF
KRNO 282325Z 2900/2924 29008KT P6SM SCT100
     FM290400 VRB04KT P6SM SKC
     FM292200 27014G24KT P6SM SCT180=



000
FTUS45 KREV 281700
TAFRNO
TAF
KRNO 281726Z 2818/2918 VRB03KT P6SM SKC
     FM282100 29011KT P6SM SKC
     FM290400 VRB06KT P6SM FEW100=



000
FTUS45 KREV 281700
TAFRNO
TAF
KRNO 281726Z 2818/2918 VRB03KT P6SM SKC
     FM282100 29011KT P6SM SKC
     FM290400 VRB06KT P6SM FEW100=



000
FTUS45 KREV 281100
TAFRNO
TAF
KRNO 281120Z 2812/2912 VRB03KT P6SM SKC
     FM282100 29011KT P6SM SKC
     FM290400 31006KT P6SM FEW100=



000
FTUS45 KREV 281100
TAFRNO
TAF
KRNO 281120Z 2812/2912 VRB03KT P6SM SKC
     FM282100 29011KT P6SM SKC
     FM290400 31006KT P6SM FEW100=



000
FTUS45 KREV 280500
TAFRNO
TAF
KRNO 280526Z 2806/2906 VRB03KT P6SM SKC
     FM282100 29008KT P6SM SKC
     FM290400 VRB04KT P6SM FEW100=



000
FTUS45 KREV 280500
TAFRNO
TAF
KRNO 280526Z 2806/2906 VRB03KT P6SM SKC
     FM282100 29008KT P6SM SKC
     FM290400 VRB04KT P6SM FEW100=



000
FTUS45 KREV 272300
TAFRNO
TAF
KRNO 272328Z 2800/2824 34007KT P6SM SKC
     FM280400 VRB03KT P6SM SKC
     FM282100 29008KT P6SM SKC=



000
FTUS45 KREV 272300
TAFRNO
TAF
KRNO 272328Z 2800/2824 34007KT P6SM SKC
     FM280400 VRB03KT P6SM SKC
     FM282100 29008KT P6SM SKC=



000
FTUS45 KREV 271700
TAFRNO
TAF
KRNO 271723Z 2718/2818 VRB03KT P6SM SKC
     FM272100 04007KT P6SM SKC
     FM280400 VRB03KT P6SM SKC=



000
FTUS45 KREV 271100
TAFRNO
TAF
KRNO 271122Z 2712/2812 VRB03KT P6SM SKC
     FM272100 04007KT P6SM SKC
     FM280400 VRB03KT P6SM SKC=



000
FTUS45 KREV 271100
TAFRNO
TAF
KRNO 271122Z 2712/2812 VRB03KT P6SM SKC
     FM272100 04007KT P6SM SKC
     FM280400 VRB03KT P6SM SKC=



000
FTUS45 KREV 270500
TAFRNO
TAF
KRNO 270520Z 2706/2806 VRB03KT P6SM SKC
     FM272100 35008KT P6SM SKC
     FM280400 VRB03KT P6SM SKC=



000
FTUS45 KREV 270500
TAFRNO
TAF
KRNO 270520Z 2706/2806 VRB03KT P6SM SKC
     FM272100 35008KT P6SM SKC
     FM280400 VRB03KT P6SM SKC=



000
FTUS45 KREV 262300
TAFRNO
TAF
KRNO 262320Z 2700/2724 02008KT P6SM FEW100
     FM270400 VRB04KT P6SM SKC
     FM272100 35008KT P6SM SKC=



000
FTUS45 KREV 262300
TAFRNO
TAF
KRNO 262320Z 2700/2724 02008KT P6SM FEW100
     FM270400 VRB04KT P6SM SKC
     FM272100 35008KT P6SM SKC=



000
FTUS45 KREV 261700
TAFRNO
TAF
KRNO 261720Z 2618/2718 VRB04KT P6SM SKC
     FM262000 02008KT P6SM FEW120
     FM270400 VRB04KT P6SM SKC=



000
FTUS45 KREV 261700
TAFRNO
TAF
KRNO 261720Z 2618/2718 VRB04KT P6SM SKC
     FM262000 02008KT P6SM FEW120
     FM270400 VRB04KT P6SM SKC=



000
FTUS45 KREV 261100
TAFRNO
TAF
KRNO 261128Z 2612/2712 VRB04KT P6SM SKC
     FM262000 02008KT P6SM FEW120
     FM270400 VRB04KT P6SM SKC=



000
FTUS45 KREV 261100
TAFRNO
TAF
KRNO 261128Z 2612/2712 VRB04KT P6SM SKC
     FM262000 02008KT P6SM FEW120
     FM270400 VRB04KT P6SM SKC=



    US Dept of Commerce
    National Oceanic and Atmospheric Administration
    National Weather Service
    1325 East West Highway
    Silver Spring, MD 20910
    Page Author: NWS Internet Services Team
Disclaimer
Information Quality
Credits
Glossary
Privacy Policy
Freedom of Information Act (FOIA)
About Us
Career Opportunities